Time;durP1;ratioP1;P1;durP2;ratioP2;P2;SDS_P1;SDS_P2;PMS_P1;PMS_P2;Temp;Humidity;BMP_temperature;BMP_pressure;BME280_temperature;BME280_humidity;BME280_pressure;Samples;Min_cycle;Max_cycle;Signal;HPM_P1;HPM_P2
2022/05/20 00:00:35;;;;;;;35.47;21.17;;;;;;;-146.64;100.00;118402.03;5070134;28;20620;-76
2022/05/20 00:03:01;;;;;;;28.00;19.37;;;;;;;-146.64;100.00;118402.03;5052655;28;20169;-75
2022/05/20 00:05:29;;;;;;;35.73;22.27;;;;;;;-146.64;100.00;118402.03;5072265;28;20279;-75
2022/05/20 00:07:55;;;;;;;30.13;19.38;;;;;;;-146.64;100.00;118402.03;5066469;28;20402;-76
2022/05/20 00:10:21;;;;;;;34.93;21.03;;;;;;;-146.64;100.00;118402.03;5092543;28;20091;-76
2022/05/20 00:12:47;;;;;;;34.37;20.67;;;;;;;-146.64;100.00;118402.03;5088140;28;20028;-77
2022/05/20 00:15:15;;;;;;;31.00;21.23;;;;;;;-146.64;100.00;118402.03;5071309;28;20050;-75
2022/05/20 00:17:40;;;;;;;27.75;21.08;;;;;;;-146.64;100.00;118402.03;5063632;28;20032;-74
2022/05/20 00:20:07;;;;;;;29.90;20.57;;;;;;;-146.64;100.00;118402.03;5090301;28;20452;-74
2022/05/20 00:22:32;;;;;;;37.83;22.33;;;;;;;-146.64;100.00;118402.03;5069107;28;20036;-75
2022/05/20 00:27:42;;;;;;;30.00;19.40;;;;;;;-146.64;100.00;118402.03;5077665;28;20051;-75
2022/05/20 00:30:08;;;;;;;31.13;20.00;;;;;;;-146.64;100.00;118402.03;5107209;28;20023;-74
2022/05/20 00:32:33;;;;;;;24.52;19.63;;;;;;;-146.64;100.00;118402.03;5098188;28;20114;-74
2022/05/20 00:34:59;;;;;;;28.60;19.73;;;;;;;-146.64;100.00;118402.03;5071653;28;20075;-74
2022/05/20 00:37:24;;;;;;;28.17;20.50;;;;;;;-146.64;100.00;118402.03;5072202;28;20047;-74
2022/05/20 00:39:49;;;;;;;31.27;20.87;;;;;;;-146.64;100.00;118402.03;5089852;28;20345;-74
2022/05/20 00:42:16;;;;;;;36.83;21.73;;;;;;;-146.64;100.00;118402.03;5074997;28;20036;-74
2022/05/20 00:44:42;;;;;;;32.20;20.70;;;;;;;-146.64;100.00;118402.03;5080484;28;20089;-73
2022/05/20 00:47:08;;;;;;;36.60;20.33;;;;;;;-146.64;100.00;118402.03;5070136;28;20028;-74
2022/05/20 00:49:35;;;;;;;29.25;20.48;;;;;;;-146.64;100.00;118402.03;5072184;28;20064;-74
2022/05/20 00:52:02;;;;;;;29.42;20.98;;;;;;;-146.64;100.00;118402.03;5070784;28;20119;-75
2022/05/20 00:54:34;;;;;;;31.42;21.77;;;;;;;-146.64;100.00;118402.03;5070446;28;20123;-75
2022/05/20 00:57:06;;;;;;;34.13;21.15;;;;;;;-146.64;100.00;118402.03;5071893;28;20122;-75
2022/05/20 00:59:34;;;;;;;34.10;20.60;;;;;;;-146.64;100.00;118402.03;5072631;28;20028;-75
2022/05/20 01:02:03;;;;;;;35.38;22.30;;;;;;;-146.64;100.00;118402.03;5078532;28;20040;-76
2022/05/20 01:04:29;;;;;;;32.97;21.63;;;;;;;-146.64;100.00;118402.03;5080457;28;20039;-75
2022/05/20 01:06:55;;;;;;;25.73;19.95;;;;;;;-146.64;100.00;118402.03;5078263;28;20491;-75
2022/05/20 01:09:20;;;;;;;26.57;20.93;;;;;;;-146.64;100.00;118402.03;5074338;28;20101;-75
2022/05/20 01:11:45;;;;;;;36.23;21.43;;;;;;;-146.64;100.00;118402.03;5100269;28;20028;-75
2022/05/20 01:14:19;;;;;;;31.27;21.83;;;;;;;-146.64;100.00;118402.03;5101482;28;20024;-74
2022/05/20 01:19:35;;;;;;;30.98;22.38;;;;;;;-146.64;100.00;117214.50;5070302;28;20060;-76
2022/05/20 01:22:02;;;;;;;33.60;22.15;;;;;;;-146.64;100.00;118182.88;5033429;28;20090;-77
2022/05/20 01:24:28;;;;;;;34.35;20.90;;;;;;;-146.64;100.00;116843.06;5038927;28;20085;-76
2022/05/20 01:26:54;;;;;;;27.27;19.87;;;;;;;-146.64;100.00;117093.47;5053640;28;20021;-76
2022/05/20 01:29:20;;;;;;;39.20;22.88;;;;;;;-146.64;100.00;117043.38;5069255;28;20087;-77
2022/05/20 01:31:45;;;;;;;30.70;22.73;;;;;;;-146.64;100.00;116473.78;5054405;28;20055;-76
2022/05/20 01:34:10;;;;;;;38.23;23.17;;;;;;;-146.64;100.00;115157.47;5071938;28;20036;-76
2022/05/20 01:36:36;;;;;;;37.00;24.07;;;;;;;-146.64;100.00;113877.06;5069983;28;20040;-77
2022/05/20 01:39:01;;;;;;;31.00;20.47;;;;;;;-146.64;100.00;116129.53;5072744;28;20032;-77
2022/05/20 01:41:53;;;;;;;33.47;22.10;;;;;;;-146.64;100.00;116878.53;5035946;28;20074;-77
2022/05/20 01:44:29;;;;;;;38.97;22.67;;;;;;;-146.64;100.00;117060.09;5047900;28;20651;-78
2022/05/20 01:50:08;;;;;;;32.20;23.77;;;;;;;-146.64;100.00;114504.72;5071980;28;20071;-78
2022/05/20 01:52:45;;;;;;;31.92;22.17;;;;;;;-146.64;100.00;115998.09;5043569;28;20028;-77
2022/05/20 01:55:21;;;;;;;31.15;20.73;;;;;;;-146.64;100.00;118291.41;5053208;28;20052;-77
2022/05/20 01:58:03;;;;;;;37.22;21.50;;;;;;;-146.64;100.00;118402.03;5051498;28;20040;-77
2022/05/20 02:00:32;;;;;;;29.63;21.40;;;;;;;-146.64;100.00;117675.69;5045378;28;20534;-76
2022/05/20 02:03:06;;;;;;;33.35;22.38;;;;;;;-146.64;100.00;117673.63;5035270;28;20040;-77
2022/05/20 02:05:32;;;;;;;37.33;22.17;;;;;;;-146.64;100.00;118402.03;5053010;28;20063;-78
2022/05/20 02:08:03;;;;;;;31.63;20.77;;;;;;;-146.64;100.00;118168.25;5071402;28;20038;-78
2022/05/20 02:10:41;;;;;;;31.63;21.88;;;;;;;-146.64;100.00;116797.16;5052036;28;20033;-78
2022/05/20 02:13:08;;;;;;;29.88;21.90;;;;;;;-146.64;100.00;115737.34;5034600;28;20032;-78
2022/05/20 02:15:47;;;;;;;31.38;22.95;;;;;;;-146.64;100.00;115370.22;5068308;28;20063;-76
2022/05/20 02:18:16;;;;;;;29.63;21.38;;;;;;;-146.64;100.00;116705.38;5054578;28;20037;-76
2022/05/20 02:20:47;;;;;;;33.63;21.67;;;;;;;-146.64;100.00;117533.78;5052795;28;20024;-77
2022/05/20 02:23:15;;;;;;;32.13;20.77;;;;;;;-146.64;100.00;118402.03;5054020;28;20029;-76
2022/05/20 02:25:46;;;;;;;23.58;18.00;;;;;;;-146.64;100.00;118402.03;5052505;28;20044;-77
2022/05/20 02:28:22;;;;;;;27.85;20.73;;;;;;;-146.64;100.00;118216.25;5054029;28;20115;-77
2022/05/20 02:30:48;;;;;;;44.70;20.98;;;;;;;-146.64;100.00;117542.13;5053715;28;20035;-77
2022/05/20 02:33:17;;;;;;;35.00;22.37;;;;;;;-146.64;100.00;116196.28;5035949;28;20028;-77
2022/05/20 02:35:44;;;;;;;30.73;21.60;;;;;;;-146.64;100.00;114928.06;5036922;28;20115;-78
2022/05/20 02:38:13;;;;;;;32.58;21.95;;;;;;;-146.64;100.00;114617.31;5052562;28;20029;-78
2022/05/20 02:40:40;;;;;;;30.52;22.70;;;;;;;-146.64;100.00;115230.47;5052432;28;20059;-77
2022/05/20 02:43:05;;;;;;;32.58;22.35;;;;;;;-146.64;100.00;115570.47;5046247;28;20068;-77
2022/05/20 02:45:33;;;;;;;29.33;21.30;;;;;;;-146.64;100.00;113685.25;5061306;28;20078;-78
2022/05/20 02:47:58;;;;;;;34.10;22.25;;;;;;;-146.64;100.00;113651.88;5053581;28;20473;-77
2022/05/20 02:50:24;;;;;;;34.10;22.77;;;;;;;-146.64;100.00;113572.66;5037642;28;20040;-77
2022/05/20 02:52:49;;;;;;;35.13;24.00;;;;;;;-146.64;100.00;112155.16;5053322;28;20032;-77
2022/05/20 02:55:15;;;;;;;34.53;22.70;;;;;;;-146.64;100.00;114928.06;5053379;28;20081;-78
2022/05/20 02:57:41;;;;;;;31.20;22.50;;;;;;;-146.64;100.00;114744.53;5070266;28;20035;-77
2022/05/20 03:05:35;;;;;;;31.23;22.65;;;;;;;-146.64;100.00;115582.97;5051672;28;20042;-78
2022/05/20 03:08:01;;;;;;;36.60;23.97;;;;;;;-146.64;100.00;113889.56;5052954;28;20144;-78
2022/05/20 03:10:26;;;;;;;31.10;22.67;;;;;;;-146.64;100.00;112330.25;5034996;28;20063;-78
2022/05/20 03:12:57;;;;;;;34.07;22.97;;;;;;;-146.64;100.00;112426.13;5052179;28;20036;-78
2022/05/20 03:15:23;;;;;;;28.83;20.95;;;;;;;-146.64;100.00;110438.19;5059477;28;20457;-79
2022/05/20 03:17:50;;;;;;;32.30;21.20;;;;;;;-146.64;100.00;112117.66;5025477;28;20032;-78
2022/05/20 03:20:15;;;;;;;33.85;23.23;;;;;;;-146.64;100.00;112795.06;5068694;28;20136;-78
2022/05/20 03:22:40;;;;;;;31.67;23.37;;;;;;;-146.64;100.00;112963.91;5052015;28;20136;-78
2022/05/20 03:25:06;;;;;;;30.83;21.60;;;;;;;-146.64;100.00;114214.84;5052996;28;20120;-79
2022/05/20 03:27:32;;;;;;;37.90;24.13;;;;;;;-146.64;100.00;111232.00;5061999;28;20093;-78
2022/05/20 03:29:57;;;;;;;37.30;23.27;;;;;;;-146.64;100.00;109788.25;5036222;28;20094;-79
2022/05/20 03:32:23;;;;;;;35.43;24.00;;;;;;;-146.64;100.00;108738.56;5068089;28;20088;-78
2022/05/20 03:34:49;;;;;;;36.27;24.37;;;;;;;-146.64;100.00;107709.97;5054200;28;20145;-79
2022/05/20 03:37:14;;;;;;;37.25;22.58;;;;;;;-146.64;100.00;109280.03;5068700;28;20423;-78
2022/05/20 03:39:41;;;;;;;34.33;23.70;;;;;;;-146.64;100.00;109929.88;5051562;28;20108;-78
2022/05/20 03:42:07;;;;;;;36.33;25.70;;;;;;;-146.64;100.00;108267.97;5050846;28;20029;-78
2022/05/20 03:44:33;;;;;;;38.07;23.93;;;;;;;-146.64;100.00;104500.97;5032650;28;20039;-79
2022/05/20 03:46:58;;;;;;;44.92;30.10;;;;;;;-146.64;100.00;100939.06;5055196;28;20075;-78
2022/05/20 03:49:27;;;;;;;47.47;31.63;;;;;;;-146.64;100.00;97056.34;5039093;28;20052;-77
2022/05/20 03:51:54;;;;;;;43.97;29.20;;;;;;;-146.64;100.00;93722.94;5048224;28;20032;-78
2022/05/20 03:54:21;;;;;;;54.72;33.33;;;;;;;-146.64;100.00;91657.03;5056061;28;20024;-79
2022/05/20 03:56:47;;;;;;;74.60;43.17;;;;;;;-146.64;100.00;81397.19;5024913;28;20036;-78
2022/05/20 03:59:12;;;;;;;76.50;44.30;;;;;;;-146.64;100.00;75671.84;5032636;28;20036;-78
2022/05/20 04:01:59;;;;;;;83.40;47.67;;;;;;;-146.64;100.00;72814.28;5031179;28;20391;-79
2022/05/20 04:04:37;;;;;;;86.57;45.70;;;;;;;-146.64;100.00;72426.28;5050790;28;20487;-79
2022/05/20 04:07:09;;;;;;;76.97;43.53;;;;;;;-146.64;100.00;72261.19;5047386;28;20047;-78
2022/05/20 04:09:34;;;;;;;93.75;49.83;;;;;;;-146.64;100.00;71111.88;5051792;28;20067;-78
2022/05/20 04:12:08;;;;;;;92.20;50.07;;;;;;;-146.64;100.00;66991.97;5069574;28;20064;-77
2022/05/20 04:14:34;;;;;;;89.57;50.35;;;;;;;-146.64;100.00;65224.06;5053473;28;20420;-79
2022/05/20 04:17:00;;;;;;;87.68;50.47;;;;;;;-146.64;100.00;64188.00;5039999;28;20059;-78
2022/05/20 04:19:28;;;;;;;93.63;51.93;;;;;;;-146.64;100.00;56005.78;5059440;28;20041;-78
2022/05/20 04:21:57;;;;;;;87.32;50.15;;;;;;;-146.64;100.00;48738.84;5051742;28;20120;-78
2022/05/20 04:24:23;;;;;;;87.20;50.08;;;;;;;-146.64;100.00;44539.63;5048353;28;20020;-79
2022/05/20 04:26:48;;;;;;;86.90;50.60;;;;;;;-146.64;100.00;40344.84;5039838;28;20161;-79
2022/05/20 04:29:14;;;;;;;86.27;50.03;;;;;;;-146.64;100.00;39296.84;5048652;28;20543;-77
2022/05/20 04:31:43;;;;;;;88.07;50.23;;;;;;;-146.64;100.00;35369.38;5052938;28;20375;-77
2022/05/20 04:34:08;;;;;;;75.53;47.47;;;;;;;-146.64;100.00;29616.16;5060252;28;20031;-76
2022/05/20 04:36:34;;;;;;;78.53;47.50;;;;;;;-146.64;100.00;31707.25;5069251;28;20399;-76
2022/05/20 04:38:59;;;;;;;75.50;49.23;;;;;;;-146.64;100.00;29877.47;5039741;28;20086;-77
2022/05/20 04:47:00;;;;;;;84.38;51.30;;;;;;;-146.64;100.00;25959.41;5063598;28;20050;-77
2022/05/20 04:49:27;;;;;;;73.18;46.75;;;;;;;-146.64;100.00;24132.34;5059376;28;20028;-78
2022/05/20 04:51:52;;;;;;;78.70;48.40;;;;;;;-146.64;100.00;23871.41;5038519;28;20029;-77
2022/05/20 04:57:01;;;;;;;73.15;50.45;;;;;;;-146.64;100.00;21002.19;5064631;28;20086;-79
2022/05/20 04:59:27;;;;;;;79.27;51.37;;;;;;;-146.64;100.00;23088.66;5054488;28;20123;-79
2022/05/20 05:01:52;;;;;;;72.10;48.97;;;;;;;-146.64;100.00;22045.28;5058236;28;20681;-79
2022/05/20 05:04:18;;;;;;;75.83;49.57;;;;;;;-146.64;100.00;21002.19;5053089;28;20044;-79
2022/05/20 05:06:45;;;;;;;78.72;50.63;;;;;;;-146.64;100.00;19438.03;5053664;28;20481;-77
2022/05/20 05:09:10;;;;;;;85.83;53.57;;;;;;;-146.64;100.00;19698.69;5040066;28;20033;-77
2022/05/20 05:11:39;;;;;;;73.47;52.80;;;;;;;-146.64;100.00;21262.94;5071808;28;20292;-78
2022/05/20 05:14:08;;;;;;;75.22;49.72;;;;;;;-146.64;100.00;21002.19;5052719;28;20091;-77
2022/05/20 05:16:34;;;;;;;85.40;52.92;;;;;;;-146.64;100.00;22045.28;5041615;28;20052;-76
2022/05/20 05:19:01;;;;;;;67.28;48.78;;;;;;;-146.64;100.00;25959.41;5056439;28;20117;-77
2022/05/20 05:21:27;;;;;;;65.07;46.80;;;;;;;-146.64;100.00;30661.56;5068535;28;20088;-77
2022/05/20 05:23:54;;;;;;;62.65;45.28;;;;;;;-146.64;100.00;61099.94;5051296;28;20025;-77
2022/05/20 05:26:20;;;;;;;53.97;42.08;;;;;;;-146.64;100.00;101340.22;5060358;28;20048;-79
2022/05/20 05:28:45;;;;;;;;;;;;;;;-146.64;100.00;116263.06;5069212;28;20024;-78
2022/05/20 05:31:11;;;;;;;53.45;39.20;;;;;;;-146.64;100.00;111725.84;5053776;28;19922;-77
2022/05/20 05:33:36;;;;;;;57.83;39.93;;;;;;;-146.64;100.00;109592.44;5055467;28;20127;-77
2022/05/20 05:36:02;;;;;;;48.47;35.83;;;;;;;-146.64;100.00;108792.72;5034299;28;20029;-78
2022/05/20 05:38:27;;;;;;;46.63;34.07;;;;;;;-146.64;100.00;106394.44;5060885;28;20024;-77
2022/05/20 05:40:52;;;;;;;44.10;33.17;;;;;;;-146.64;100.00;105861.69;5050443;28;20025;-77
2022/05/20 05:43:18;;;;;;;47.67;33.80;;;;;;;-146.64;100.00;111459.13;5030325;28;20032;-77
2022/05/20 05:45:43;;;;;;;40.53;31.27;;;;;;;-146.64;100.00;113860.38;5041536;28;20044;-77
2022/05/20 05:48:09;;;;;;;43.37;28.33;;;;;;;-146.64;100.00;114394.19;5063480;28;20055;-77
2022/05/20 05:50:37;;;;;;;41.38;26.63;;;;;;;-146.64;100.00;115729.00;5060071;28;20036;-76
2022/05/20 05:53:08;;;;;;;40.95;25.95;;;;;;;-146.64;100.00;113059.81;5062736;28;20044;-77
2022/05/20 05:55:34;;;;;;;44.03;25.00;;;;;;;-146.64;100.00;111992.59;5036325;28;20033;-77
2022/05/20 05:57:59;;;;;;;47.03;26.77;;;;;;;-146.64;100.00;105595.31;5040372;28;20620;-78
2022/05/20 06:00:26;;;;;;;40.40;24.73;;;;;;;-146.64;100.00;101602.13;5038366;28;20041;-77
2022/05/20 06:02:52;;;;;;;36.35;21.15;;;;;;;-146.64;100.00;97612.84;5039598;28;20039;-77
2022/05/20 06:05:17;;;;;;;25.93;18.87;;;;;;;-146.64;100.00;102932.75;5050602;28;20487;-77
2022/05/20 06:07:43;;;;;;;25.73;19.17;;;;;;;-146.64;100.00;95752.53;5051815;28;20080;-77
2022/05/20 06:10:08;;;;;;;27.07;16.57;;;;;;;-146.64;100.00;78783.59;5036108;28;20486;-77
2022/05/20 06:12:35;;;;;;;21.73;15.67;;;;;;;-146.64;100.00;57672.94;5052952;28;20121;-77
2022/05/20 06:15:09;;;;;;;18.20;14.10;;;;;;;-146.64;100.00;54253.00;5051491;28;20032;-78
2022/05/20 06:17:35;;;;;;;19.00;13.65;;;;;;;-146.64;100.00;40099.19;5052511;28;20033;-78
2022/05/20 06:20:03;;;;;;;23.20;14.25;;;;;;;-146.64;100.00;36203.63;5066875;28;20387;-78
2022/05/20 06:22:28;;;;;;;21.75;13.82;;;;;;;-146.64;100.00;35915.31;5054416;28;20039;-79
2022/05/20 06:24:54;;;;;;;20.40;13.38;;;;;;;-146.64;100.00;35741.50;5055189;28;20036;-79
2022/05/20 06:27:21;;;;;;;18.57;13.17;;;;;;;-146.64;100.00;36085.03;5071536;28;20056;-78
2022/05/20 06:29:51;;;;;;;23.30;12.18;;;;;;;-146.64;100.00;36117.75;5037926;28;20158;-78
2022/05/20 06:32:17;;;;;;;18.20;11.50;;;;;;;-146.64;100.00;36363.13;5037141;28;20086;-79
2022/05/20 06:40:13;;;;;;;18.20;10.80;;;;;;;-146.64;100.00;36678.09;5057159;28;20090;-79
2022/05/20 06:42:38;;;;;;;17.63;11.00;;;;;;;-146.64;100.00;36297.69;5054171;28;20111;-80
2022/05/20 06:45:05;;;;;;;20.13;10.13;;;;;;;-146.64;100.00;36817.16;5054069;28;20111;-80
2022/05/20 06:47:30;;;;;;;14.70;9.88;;;;;;;-146.64;100.00;36581.97;5070665;28;20343;-80
2022/05/20 06:49:55;;;;;;;17.43;9.30;;;;;;;-146.64;100.00;36545.16;5042339;28;20120;-79
2022/05/20 06:52:21;;;;;;;16.23;9.83;;;;;;;-146.64;98.28;36678.09;5050862;28;20037;-79
2022/05/20 06:54:46;;;;;;;15.57;9.37;;;;;;;-146.64;100.00;36813.09;5032919;28;20033;-79
2022/05/20 06:57:11;;;;;;;16.97;9.37;;;;;;;-146.64;94.94;36674.00;5050415;28;20036;-79
2022/05/20 06:59:37;;;;;;;11.67;7.87;;;;;;;-146.64;89.53;36866.25;5051933;28;20394;-79
2022/05/20 07:02:04;;;;;;;13.47;8.20;;;;;;;-146.64;98.62;36696.50;5052049;28;20035;-79
2022/05/20 07:04:30;;;;;;;12.52;8.32;;;;;;;-146.64;94.00;36694.47;5050863;28;20041;-79
2022/05/20 07:06:56;;;;;;;12.60;7.88;;;;;;;-146.64;97.14;36614.69;5042861;28;20102;-78
2022/05/20 07:09:21;;;;;;;;;;;;;;;-146.64;97.20;36498.13;5034404;28;20083;-79
2022/05/20 07:11:47;;;;;;;12.65;6.95;;;;;;;-146.64;95.04;36972.63;5051017;28;19925;-79
2022/05/20 07:14:12;;;;;;;9.60;6.43;;;;;;;-146.64;99.72;37091.25;5052061;28;20455;-79
2022/05/20 07:16:37;;;;;;;12.47;6.77;;;;;;;-146.64;100.00;36923.53;5053772;28;20025;-78
2022/05/20 07:19:03;;;;;;;10.13;6.73;;;;;;;-146.64;100.00;37283.53;5053048;28;20044;-79
2022/05/20 07:21:29;;;;;;;12.38;7.50;;;;;;;-146.64;100.00;37025.78;5053904;28;20201;-78
2022/05/20 07:23:54;;;;;;;13.20;7.13;;;;;;;-146.64;100.00;36901.03;5069791;28;20032;-79
2022/05/20 07:26:21;;;;;;;13.90;7.57;;;;;;;-146.64;100.00;36831.50;5070733;28;20033;-79
2022/05/20 07:28:46;;;;;;;10.77;8.00;;;;;;;-146.64;100.00;36716.94;5070740;28;20689;-79
2022/05/20 07:31:12;;;;;;;18.67;9.57;;;;;;;-146.64;100.00;36870.34;5070124;28;20033;-78
2022/05/20 07:33:37;;;;;;;12.83;8.70;;;;;;;-146.64;100.00;36800.81;5053467;28;20039;-77
2022/05/20 07:36:04;;;;;;;10.93;7.80;;;;;;;-146.64;100.00;37058.53;5054292;28;20089;-78
2022/05/20 07:38:29;;;;;;;12.20;8.43;;;;;;;-146.64;100.00;37013.53;5053569;28;20044;-78
2022/05/20 07:40:56;;;;;;;14.03;9.37;;;;;;;-146.64;100.00;36997.16;5057709;28;20369;-78
2022/05/20 07:43:22;;;;;;;16.95;9.63;;;;;;;-146.64;100.00;37052.38;5049777;28;20033;-78
2022/05/20 07:45:48;;;;;;;18.60;10.00;;;;;;;-146.64;100.00;36790.59;5017104;28;20036;-78
2022/05/20 07:48:14;;;;;;;21.27;9.90;;;;;;;-146.64;100.00;36465.41;5050109;28;20032;-79
2022/05/20 07:50:45;;;;;;;14.80;10.30;;;;;;;-146.64;100.00;36751.72;5053264;28;20479;-78
2022/05/20 07:53:21;;;;;;;16.50;9.75;;;;;;;-146.64;100.00;36749.69;5069708;28;20336;-77
2022/05/20 07:56:03;;;;;;;13.13;9.00;;;;;;;-146.64;100.00;36866.25;5070047;28;20367;-79
2022/05/20 07:58:38;;;;;;;13.82;8.95;;;;;;;-146.64;100.00;36845.81;5052112;28;20024;-78
2022/05/20 08:01:04;;;;;;;14.15;9.02;;;;;;;-146.64;100.00;36901.03;5069637;28;20036;-79
2022/05/20 08:06:20;;;;;;;14.30;9.07;;;;;;;-146.64;100.00;36854.00;5054801;28;20707;-78
2022/05/20 08:08:45;;;;;;;14.07;9.87;;;;;;;-146.64;100.00;36616.75;5069725;28;20040;-79
2022/05/20 08:11:10;;;;;;;14.23;9.90;;;;;;;-146.64;100.00;36635.16;5069318;28;20071;-79
2022/05/20 08:13:36;;;;;;;12.73;9.53;;;;;;;-146.64;100.00;37005.34;5052564;28;20089;-78
2022/05/20 08:16:02;;;;;;;16.75;10.10;;;;;;;-146.64;100.00;36755.81;5069087;28;20106;-79
2022/05/20 08:18:27;;;;;;;13.47;10.07;;;;;;;-146.64;100.00;36851.94;5052632;28;20192;-79
2022/05/20 08:20:55;;;;;;;17.93;9.10;;;;;;;-146.64;100.00;36721.03;5052660;28;20074;-78
2022/05/20 08:23:20;;;;;;;15.23;8.15;;;;;;;-146.64;100.00;36831.50;5036122;28;20466;-79
2022/05/20 08:25:46;;;;;;;12.65;6.75;;;;;;;-146.64;100.00;36849.91;5052814;28;20055;-78
2022/05/20 08:28:11;;;;;;;15.27;7.37;;;;;;;-146.64;100.00;36909.22;5052762;28;20032;-78
2022/05/20 08:30:36;;;;;;;13.73;8.27;;;;;;;-146.64;100.00;37078.97;5052163;28;20041;-78
2022/05/20 08:33:02;;;;;;;13.37;7.03;;;;;;;-146.64;100.00;37083.06;5052599;28;20071;-79
2022/05/20 08:35:27;;;;;;;10.43;5.77;;;;;;;-146.64;100.00;36997.16;5068947;28;20040;-78
2022/05/20 08:37:54;;;;;;;13.50;5.63;;;;;;;-146.64;100.00;36870.34;5069406;28;20108;-78
2022/05/20 08:40:25;;;;;;;19.20;6.65;;;;;;;-146.64;100.00;37152.63;5070114;28;20037;-78
2022/05/20 08:42:53;;;;;;;22.02;7.72;;;;;;;-146.64;100.00;37152.63;5070672;28;20028;-78
2022/05/20 08:45:21;;;;;;;17.45;7.15;;;;;;;-146.64;100.00;37050.34;5053753;28;20266;-78
2022/05/20 08:47:48;;;;;;;17.88;6.20;;;;;;;-146.64;100.00;37029.88;5050684;28;20033;-78
2022/05/20 08:50:20;;;;;;;12.18;6.57;;;;;;;-146.64;100.00;37111.72;5032408;28;20029;-78
2022/05/20 08:52:46;;;;;;;11.90;6.13;;;;;;;-146.64;100.00;36874.44;5050557;28;20033;-78
2022/05/20 08:55:12;;;;;;;13.85;7.30;;;;;;;-146.64;100.00;36567.66;5032081;28;20033;-78
2022/05/20 08:57:39;;;;;;;12.50;7.15;;;;;;;-146.64;100.00;37050.34;5049050;28;20083;-78
2022/05/20 09:00:10;;;;;;;14.10;7.10;;;;;;;-146.64;100.00;36943.97;5050033;28;20036;-78
2022/05/20 09:02:36;;;;;;;11.18;5.90;;;;;;;-146.64;100.00;37152.63;5049453;28;20075;-79
2022/05/20 09:05:22;;;;;;;11.67;6.20;;;;;;;-146.64;100.00;37209.88;5049674;28;20457;-78
2022/05/20 09:07:59;;;;;;;13.90;5.68;;;;;;;-146.64;100.00;37213.97;5049942;28;20037;-78
2022/05/20 09:10:28;;;;;;;9.88;5.72;;;;;;;-146.64;98.80;37283.53;5033310;28;20039;-78
2022/05/20 09:13:04;;;;;;;11.02;5.00;;;;;;;-146.64;100.00;37185.34;5036368;28;20077;-78
2022/05/20 09:15:46;;;;;;;9.80;5.10;;;;;;;-146.64;99.01;37205.78;5052111;28;20028;-78
2022/05/20 09:18:56;;;;;;;12.27;5.97;;;;;;;-146.64;99.69;37144.44;5056854;28;20041;-78
2022/05/20 09:21:34;;;;;;;11.48;5.85;;;;;;;-146.64;97.37;37085.13;5070988;28;20079;-76
2022/05/20 09:24:06;;;;;;;8.90;5.47;;;;;;;-146.64;97.53;37152.63;5035883;28;20036;-76
2022/05/20 09:26:37;;;;;;;9.65;6.22;;;;;;;-146.64;100.00;37054.44;5036708;28;20116;-76
2022/05/20 09:29:18;;;;;;;8.70;5.90;;;;;;;-146.64;98.39;37222.16;5035830;28;20444;-76
2022/05/20 09:31:52;;;;;;;13.57;6.00;;;;;;;-146.64;100.00;37107.63;5035562;28;20399;-77
2022/05/20 09:34:33;;;;;;;12.63;6.18;;;;;;;-146.64;100.00;37085.13;5035640;28;20387;-76
2022/05/20 09:37:06;;;;;;;10.73;5.53;;;;;;;-146.64;99.66;37185.34;5035725;28;20056;-77
2022/05/20 09:39:38;;;;;;;9.85;6.13;;;;;;;-146.64;99.66;37162.84;5035527;28;20051;-78
2022/05/20 09:42:20;;;;;;;12.15;6.10;;;;;;;-146.64;98.10;37109.66;5052491;28;20025;-77
2022/05/20 09:44:51;;;;;;;10.85;6.95;;;;;;;-146.64;100.00;37117.84;5053574;28;20488;-76
2022/05/20 09:47:47;;;;;;;18.42;6.75;;;;;;;-146.64;98.45;37216.03;5052187;28;20025;-76
2022/05/20 09:50:24;;;;;;;13.32;6.93;;;;;;;-146.64;100.00;37209.88;5052007;28;20032;-76
2022/05/20 09:52:50;;;;;;;7.90;6.63;;;;;;;-146.64;98.71;37275.34;5051932;28;20124;-77
2022/05/20 09:55:25;;;;;;;11.73;6.83;;;;;;;-146.64;100.00;37193.53;5054004;28;20163;-77
2022/05/20 09:57:54;;;;;;;13.18;6.68;;;;;;;-146.64;96.78;37357.16;5053298;28;20039;-76
2022/05/20 10:00:26;;;;;;;12.75;6.90;;;;;;;-146.64;97.86;37314.22;5053125;28;20422;-77
2022/05/20 10:03:16;;;;;;;11.88;7.40;;;;;;;-146.64;100.00;37160.78;5036490;28;20387;-77
2022/05/20 10:05:51;;;;;;;13.55;7.80;;;;;;;-146.64;97.08;37265.13;5035472;28;20028;-77
2022/05/20 10:08:25;;;;;;;11.60;7.30;;;;;;;-146.64;98.71;37213.97;5037950;28;20047;-78
2022/05/20 10:11:19;;;;;;;15.73;7.72;;;;;;;-146.64;99.92;37095.34;5052707;28;20035;-77
2022/05/20 10:14:09;;;;;;;11.65;7.82;;;;;;;-146.64;99.51;36984.88;5043091;28;20041;-79
2022/05/20 10:16:49;;;;;;;11.52;8.05;;;;;;;-146.64;100.00;37072.84;5036279;28;20025;-78
2022/05/20 10:19:50;;;;;;;10.93;8.00;;;;;;;-146.64;100.00;36984.88;5036154;28;20075;-77
2022/05/20 10:22:23;;;;;;;13.90;8.80;;;;;;;-146.64;99.95;36968.53;5051508;28;20132;-79
2022/05/20 10:25:07;;;;;;;15.00;8.43;;;;;;;-146.64;98.43;37040.13;5034392;28;20033;-78
2022/05/20 10:28:01;;;;;;;16.77;9.10;;;;;;;-146.64;99.46;37052.38;5052383;28;20025;-76
2022/05/20 10:33:28;;;;;;;14.35;9.00;;;;;;;-146.64;100.00;36804.91;5072884;28;20043;-77
2022/05/20 10:36:07;;;;;;;16.15;8.40;;;;;;;-146.64;100.00;36874.44;5045423;28;20489;-77
2022/05/20 10:38:51;;;;;;;15.32;8.82;;;;;;;-146.64;100.00;36841.72;5071256;28;20035;-76
2022/05/20 10:41:24;;;;;;;16.00;8.55;;;;;;;-146.64;100.00;36882.63;5075613;28;20382;-77
2022/05/20 10:50:08;;;;;;;12.40;8.82;;;;;;;-146.64;100.00;36943.97;5072507;28;20038;-81
2022/05/20 10:52:46;;;;;;;15.13;9.48;;;;;;;-146.64;100.00;37017.63;5052852;28;20036;-80
2022/05/20 10:55:37;;;;;;;18.35;8.75;;;;;;;-146.64;100.00;37103.53;5075142;28;20025;-80
2022/05/20 10:58:24;;;;;;;15.55;8.45;;;;;;;-146.64;100.00;36999.22;5062878;28;20074;-81
2022/05/20 11:00:52;;;;;;;16.45;9.57;;;;;;;-146.64;100.00;36956.25;5047384;28;20044;-80
2022/05/20 11:03:17;;;;;;;15.13;8.55;;;;;;;-146.64;100.00;36704.69;5068573;28;20032;-80
2022/05/20 11:06:06;;;;;;;15.13;8.63;;;;;;;-146.64;99.24;36770.13;5057231;28;20135;-82
2022/05/20 11:08:37;;;;;;;18.05;8.90;;;;;;;-146.64;100.00;36506.31;5058518;28;20033;-81
2022/05/20 11:11:11;;;;;;;12.88;9.45;;;;;;;-146.64;97.88;36913.31;5061131;28;20028;-82
2022/05/20 11:14:06;;;;;;;12.45;8.85;;;;;;;-146.64;99.35;36886.72;5062612;28;20431;-80
2022/05/20 11:16:34;;;;;;;19.40;9.50;;;;;;;-146.64;100.00;36768.09;5059641;28;20044;-80
2022/05/20 11:19:19;;;;;;;13.43;7.50;;;;;;;-146.64;100.00;36723.09;5060955;28;20044;-81
2022/05/20 11:21:57;;;;;;;18.23;8.52;;;;;;;-146.64;100.00;36806.94;5072667;28;20476;-82
2022/05/20 11:25:00;;;;;;;13.32;7.93;;;;;;;-146.64;99.96;36778.31;5042652;28;21127;-82
2022/05/20 11:27:45;;;;;;;13.60;7.45;;;;;;;-146.64;100.00;36788.53;5043474;28;20021;-81
2022/05/20 11:30:23;;;;;;;12.85;7.15;;;;;;;-146.64;100.00;36982.84;5075108;28;20052;-81
2022/05/20 11:33:28;;;;;;;14.00;7.78;;;;;;;-146.64;100.00;37115.78;5058431;28;20071;-80
2022/05/20 11:36:07;;;;;;;15.23;7.72;;;;;;;-146.64;100.00;37115.78;5044766;28;20068;-81
2022/05/20 11:38:51;;;;;;;17.50;8.00;;;;;;;-146.64;100.00;37287.63;5058593;28;20048;-81
2022/05/20 11:41:36;;;;;;;13.57;8.15;;;;;;;-146.64;100.00;37422.63;5061818;28;20039;-80
2022/05/20 11:44:26;;;;;;;14.02;7.05;;;;;;;-146.64;100.00;37606.75;5082034;28;20040;-80
2022/05/20 11:47:29;;;;;;;19.70;7.95;;;;;;;-146.64;100.00;37868.59;5074560;28;20020;-81
2022/05/20 11:50:19;;;;;;;12.40;7.22;;;;;;;-146.64;100.00;38224.59;5071233;28;20071;-81